createdAt,value
2019-02-18T00:03:44.292Z,20.27
2019-02-18T00:06:12.808Z,21.70
2019-02-18T00:08:41.280Z,20.77
2019-02-18T00:11:09.762Z,19.90
2019-02-18T00:13:38.497Z,19.70
2019-02-18T00:16:06.986Z,20.27
2019-02-18T00:18:35.469Z,21.00
2019-02-18T00:21:03.961Z,20.60
2019-02-18T00:23:32.454Z,20.90
2019-02-18T00:26:00.952Z,18.77
2019-02-18T00:28:29.450Z,20.53
2019-02-18T00:30:57.938Z,19.77
2019-02-18T00:33:26.434Z,20.23
2019-02-18T00:35:54.932Z,20.20
2019-02-18T00:38:23.508Z,22.03
2019-02-18T00:40:51.988Z,22.20
2019-02-18T00:43:20.490Z,22.70
2019-02-18T00:45:49.010Z,25.57
2019-02-18T00:48:17.497Z,23.67
2019-02-18T00:50:45.956Z,22.77
2019-02-18T00:53:14.442Z,22.67
2019-02-18T00:55:42.873Z,23.50
2019-02-18T00:58:11.365Z,21.97
2019-02-18T01:00:39.988Z,23.00
2019-02-18T01:03:08.478Z,23.63
2019-02-18T01:05:36.979Z,23.73
2019-02-18T01:08:05.464Z,23.50
2019-02-18T01:10:33.951Z,27.23
2019-02-18T01:13:02.384Z,26.47
2019-02-18T01:15:30.880Z,26.43
2019-02-18T01:17:59.377Z,25.70
2019-02-18T01:20:27.855Z,26.73
2019-02-18T01:22:56.292Z,27.70
2019-02-18T01:25:24.780Z,25.90
2019-02-18T01:27:53.269Z,26.53
2019-02-18T01:30:21.746Z,26.00
2019-02-18T01:32:50.393Z,28.67
2019-02-18T01:35:18.883Z,27.87
2019-02-18T01:37:47.510Z,26.00
2019-02-18T01:40:16.015Z,28.70
2019-02-18T01:42:44.486Z,28.17
2019-02-18T01:45:15.676Z,30.33
2019-02-18T01:47:44.244Z,30.43
2019-02-18T01:50:14.381Z,29.33
2019-02-18T01:52:42.864Z,31.90
2019-02-18T01:55:12.728Z,31.43
2019-02-18T01:57:41.287Z,33.23
2019-02-18T02:00:14.874Z,35.93
2019-02-18T02:02:43.284Z,37.47
2019-02-18T02:05:13.581Z,36.73
2019-02-18T02:07:42.071Z,37.23
2019-02-18T02:10:12.617Z,36.53
2019-02-18T02:12:41.044Z,36.10
2019-02-18T02:15:12.733Z,36.93
2019-02-18T02:17:41.221Z,31.77
2019-02-18T02:20:09.862Z,33.67
2019-02-18T02:22:38.335Z,30.50
2019-02-18T02:25:06.835Z,30.90
2019-02-18T02:27:35.328Z,30.57
2019-02-18T02:30:04.958Z,33.20
2019-02-18T02:32:33.434Z,36.90
2019-02-18T02:35:01.923Z,31.10
2019-02-18T02:37:30.405Z,30.10
2019-02-18T02:39:58.825Z,32.43
2019-02-18T02:42:27.376Z,96.73
2019-02-18T02:44:55.943Z,30.97
2019-02-18T02:47:24.447Z,28.67
2019-02-18T02:49:52.941Z,27.67
2019-02-18T02:52:21.412Z,29.33
2019-02-18T02:54:49.967Z,27.67
2019-02-18T02:57:18.517Z,29.00
2019-02-18T02:59:46.994Z,31.63
2019-02-18T03:02:15.544Z,29.43
2019-02-18T03:04:43.984Z,27.67
2019-02-18T03:07:12.468Z,27.17
2019-02-18T03:09:41.008Z,26.83
2019-02-18T03:12:09.415Z,28.53
2019-02-18T03:14:37.837Z,28.50
2019-02-18T03:17:06.335Z,27.57
2019-02-18T03:19:34.809Z,34.40
2019-02-18T03:22:03.242Z,29.03
2019-02-18T03:24:31.743Z,28.20
2019-02-18T03:27:00.295Z,27.53
2019-02-18T03:29:52.943Z,28.20
2019-02-18T03:32:21.493Z,34.57
2019-02-18T03:34:49.903Z,31.53
2019-02-18T03:37:18.462Z,27.27
2019-02-18T03:39:46.929Z,26.07
2019-02-18T03:42:15.416Z,26.63
2019-02-18T03:44:43.886Z,25.30
2019-02-18T03:47:12.385Z,25.37
2019-02-18T03:49:40.873Z,26.20
2019-02-18T03:52:09.822Z,25.97
2019-02-18T03:54:38.232Z,25.87
2019-02-18T03:57:06.647Z,26.17
2019-02-18T03:59:35.073Z,27.17
2019-02-18T04:02:03.567Z,28.00
2019-02-18T04:04:32.135Z,27.27
2019-02-18T04:07:00.558Z,26.80
2019-02-18T04:09:28.989Z,29.67
2019-02-18T04:11:57.542Z,29.70
2019-02-18T04:14:25.953Z,32.30
2019-02-18T04:16:54.507Z,30.37
2019-02-18T04:19:23.070Z,31.90
2019-02-18T04:21:51.497Z,34.10
2019-02-18T04:24:19.968Z,44.87
2019-02-18T04:26:48.470Z,41.63
2019-02-18T04:29:16.864Z,41.77
2019-02-18T04:31:45.432Z,39.23
2019-02-18T04:34:13.909Z,32.60
2019-02-18T04:36:42.410Z,35.97
2019-02-18T04:39:10.890Z,38.43
2019-02-18T04:41:39.329Z,39.50
2019-02-18T04:44:07.747Z,41.30
2019-02-18T04:46:36.158Z,42.10
2019-02-18T04:49:04.646Z,41.63
2019-02-18T04:51:33.131Z,37.70
2019-02-18T04:54:01.560Z,35.87
2019-02-18T04:56:29.988Z,39.07
2019-02-18T04:58:58.622Z,41.10
2019-02-18T05:01:27.054Z,41.27
2019-02-18T05:03:55.546Z,43.40
2019-02-18T05:06:25.547Z,41.57
2019-02-18T05:09:04.859Z,43.70
2019-02-18T05:11:24.606Z,47.50
2019-02-18T05:13:53.125Z,47.37
2019-02-18T05:16:21.651Z,43.73
2019-02-18T05:18:50.095Z,43.73
2019-02-18T05:21:18.587Z,46.33
2019-02-18T05:23:47.244Z,46.17
2019-02-18T05:26:15.879Z,47.23
2019-02-18T05:28:44.447Z,55.23
2019-02-18T05:31:13.152Z,59.03
2019-02-18T05:33:41.784Z,59.50
2019-02-18T05:36:10.362Z,67.40
2019-02-18T05:38:38.997Z,64.57
2019-02-18T05:41:07.520Z,60.97
2019-02-18T05:43:36.194Z,57.93
2019-02-18T05:46:04.870Z,65.27
2019-02-18T05:48:34.147Z,68.43
2019-02-18T05:51:02.905Z,68.47
2019-02-18T05:53:31.545Z,65.80
2019-02-18T05:56:00.113Z,72.43
2019-02-18T05:58:28.695Z,66.43
2019-02-18T06:00:57.249Z,50.63
2019-02-18T06:03:25.820Z,50.23
2019-02-18T06:05:54.305Z,66.03
2019-02-18T06:08:22.931Z,70.40
2019-02-18T06:10:51.423Z,62.20
2019-02-18T06:13:20.044Z,77.10
2019-02-18T06:15:48.714Z,84.53
2019-02-18T06:18:17.207Z,53.67
2019-02-18T06:20:45.776Z,51.93
2019-02-18T06:23:14.383Z,40.80
2019-02-18T06:25:42.975Z,26.83
2019-02-18T06:28:11.452Z,25.13
2019-02-18T06:30:39.948Z,29.10
2019-02-18T06:33:08.499Z,29.63
2019-02-18T06:35:36.919Z,28.90
2019-02-18T06:38:05.484Z,33.67
2019-02-18T06:40:34.048Z,36.13
2019-02-18T06:43:02.665Z,31.17
2019-02-18T06:45:35.735Z,31.23
2019-02-18T06:48:08.617Z,29.63
2019-02-18T06:50:37.123Z,26.77
2019-02-18T06:53:05.612Z,26.50
2019-02-18T06:55:34.100Z,33.13
2019-02-18T06:58:20.319Z,39.67
2019-02-18T07:03:38.507Z,27.17
2019-02-18T07:08:56.179Z,22.60
2019-02-18T07:11:26.313Z,24.43
2019-02-18T07:13:54.794Z,21.77
2019-02-18T07:16:23.288Z,24.27
2019-02-18T07:18:51.775Z,24.27
2019-02-18T07:21:20.319Z,25.43
2019-02-18T07:23:49.053Z,20.97
2019-02-18T07:26:17.600Z,21.00
2019-02-18T07:28:46.014Z,18.30
2019-02-18T07:31:15.163Z,20.35
2019-02-18T07:33:44.265Z,34.48
2019-02-18T07:36:13.241Z,19.00
2019-02-18T07:38:42.317Z,19.23
2019-02-18T07:41:11.323Z,26.42
2019-02-18T07:43:40.460Z,23.87
2019-02-18T07:46:09.613Z,21.75
2019-02-18T07:48:38.619Z,19.80
2019-02-18T07:51:07.644Z,21.37
2019-02-18T07:53:36.780Z,20.17
2019-02-18T07:56:05.865Z,19.92
2019-02-18T07:58:34.888Z,18.52
2019-02-18T08:01:04.023Z,20.10
2019-02-18T08:03:33.115Z,17.75
2019-02-18T08:06:02.219Z,20.02
2019-02-18T08:08:31.236Z,18.85
2019-02-18T08:11:00.318Z,18.98
2019-02-18T08:13:29.354Z,19.30
2019-02-18T08:15:58.359Z,23.62
2019-02-18T08:18:27.528Z,21.07
2019-02-18T08:20:56.946Z,21.30
2019-02-18T08:23:26.086Z,21.35
2019-02-18T08:25:55.159Z,22.02
2019-02-18T08:28:24.242Z,22.45
2019-02-18T08:30:53.337Z,24.05
2019-02-18T08:33:22.474Z,25.00
2019-02-18T08:35:51.508Z,23.35
2019-02-18T08:38:20.738Z,24.52
2019-02-18T08:40:49.836Z,23.92
2019-02-18T08:43:18.994Z,23.57
2019-02-18T08:45:48.104Z,24.27
2019-02-18T08:48:17.117Z,24.82
2019-02-18T08:50:46.149Z,24.87
2019-02-18T08:53:15.250Z,25.02
2019-02-18T08:55:44.279Z,24.92
2019-02-18T08:58:13.369Z,26.68
2019-02-18T09:00:42.365Z,24.05
2019-02-18T09:03:11.467Z,23.90
2019-02-18T09:05:40.564Z,23.75
2019-02-18T09:08:09.589Z,24.57
2019-02-18T09:10:38.716Z,24.43
2019-02-18T09:13:07.734Z,24.10
2019-02-18T09:15:36.882Z,24.07
2019-02-18T09:18:06.049Z,24.40
2019-02-18T09:20:35.095Z,24.57
2019-02-18T09:23:08.224Z,24.07
2019-02-18T09:25:38.893Z,24.23
2019-02-18T09:28:08.048Z,23.75
2019-02-18T09:30:38.793Z,24.80
2019-02-18T09:33:07.872Z,24.43
2019-02-18T09:35:36.901Z,23.40
2019-02-18T09:38:06.146Z,23.57
2019-02-18T09:40:44.286Z,24.30
2019-02-18T09:43:06.149Z,23.75
2019-02-18T09:45:35.297Z,23.10
2019-02-18T09:48:04.398Z,23.87
2019-02-18T09:50:33.526Z,24.80
2019-02-18T09:53:02.695Z,23.60
2019-02-18T09:55:31.749Z,23.40
2019-02-18T09:58:00.935Z,23.30
2019-02-18T10:00:30.018Z,23.15
2019-02-18T10:02:59.192Z,23.20
2019-02-18T10:05:28.345Z,21.80
2019-02-18T10:07:57.483Z,22.73
2019-02-18T10:10:26.636Z,22.90
2019-02-18T10:12:55.736Z,22.65
2019-02-18T10:15:24.899Z,23.70
2019-02-18T10:17:54.050Z,19.70
2019-02-18T10:20:23.140Z,23.40
2019-02-18T10:22:52.178Z,24.27
2019-02-18T10:25:21.312Z,21.40
2019-02-18T10:27:50.505Z,21.75
2019-02-18T10:30:20.771Z,20.55
2019-02-18T10:32:49.983Z,22.35
2019-02-18T10:35:19.073Z,20.60
2019-02-18T10:37:54.885Z,21.33
2019-02-18T10:40:19.016Z,22.17
2019-02-18T10:42:48.174Z,21.12
2019-02-18T10:45:17.193Z,21.60
2019-02-18T10:47:46.251Z,22.82
2019-02-18T10:50:15.417Z,22.20
2019-02-18T10:52:44.576Z,22.20
2019-02-18T10:55:13.740Z,21.45
2019-02-18T10:57:42.823Z,19.67
2019-02-18T11:00:16.383Z,18.55
2019-02-18T11:02:45.471Z,19.52
2019-02-18T11:05:14.564Z,21.60
2019-02-18T11:07:43.722Z,17.42
2019-02-18T11:10:16.907Z,18.05
2019-02-18T11:12:47.669Z,18.12
2019-02-18T11:15:16.954Z,19.98
2019-02-18T11:17:46.447Z,18.65
2019-02-18T11:20:15.461Z,18.23
2019-02-18T11:22:44.621Z,15.72
2019-02-18T11:25:15.434Z,19.65
2019-02-18T11:27:44.433Z,24.20
2019-02-18T11:30:39.256Z,22.22
2019-02-18T11:33:08.377Z,23.38
2019-02-18T11:35:37.376Z,25.20
2019-02-18T11:38:06.451Z,23.85
2019-02-18T11:40:35.985Z,22.95
2019-02-18T11:43:05.053Z,23.52
2019-02-18T11:45:34.880Z,20.70
2019-02-18T11:48:04.118Z,20.77
2019-02-18T11:50:33.149Z,20.52
2019-02-18T11:53:02.153Z,20.70
2019-02-18T11:55:31.191Z,20.75
2019-02-18T11:58:00.272Z,21.00
2019-02-18T12:00:29.288Z,17.70
2019-02-18T12:03:03.110Z,17.73
2019-02-18T12:05:29.190Z,17.27
2019-02-18T12:07:58.288Z,16.77
2019-02-18T12:10:27.409Z,16.10
2019-02-18T12:12:56.400Z,17.55
2019-02-18T12:15:25.429Z,16.20
2019-02-18T12:17:54.527Z,16.37
2019-02-18T12:20:23.762Z,15.43
2019-02-18T12:22:52.862Z,15.58
2019-02-18T12:25:22.566Z,15.72
2019-02-18T12:27:51.736Z,15.18
2019-02-18T12:30:20.904Z,15.05
2019-02-18T12:32:49.995Z,17.50
2019-02-18T12:35:19.175Z,15.93
2019-02-18T12:37:55.235Z,15.35
2019-02-18T12:40:19.218Z,12.33
2019-02-18T12:42:48.309Z,13.83
2019-02-18T12:45:17.455Z,13.55
2019-02-18T12:47:46.739Z,13.08
2019-02-18T12:50:15.899Z,12.45
2019-02-18T12:52:45.008Z,12.60
2019-02-18T12:55:14.849Z,13.20
2019-02-18T12:57:44.223Z,12.98
2019-02-18T13:00:14.458Z,14.30
2019-02-18T13:02:45.052Z,14.58
2019-02-18T13:05:14.641Z,14.18
2019-02-18T13:07:43.799Z,13.40
2019-02-18T13:10:13.041Z,12.80
2019-02-18T13:12:42.580Z,12.63
2019-02-18T13:15:19.036Z,13.25
2019-02-18T13:17:49.878Z,13.80
2019-02-18T13:20:19.051Z,12.07
2019-02-18T13:22:48.068Z,12.95
2019-02-18T13:25:17.242Z,12.28
2019-02-18T13:27:46.631Z,12.00
2019-02-18T13:30:18.565Z,12.10
2019-02-18T13:32:47.668Z,11.45
2019-02-18T13:35:16.842Z,11.08
2019-02-18T13:37:45.929Z,10.32
2019-02-18T13:40:16.575Z,9.58
2019-02-18T13:42:45.977Z,9.05
2019-02-18T13:45:15.190Z,8.48
2019-02-18T13:47:44.258Z,8.23
2019-02-18T13:50:14.002Z,8.75
2019-02-18T13:52:43.087Z,10.43
2019-02-18T13:55:12.927Z,8.95
2019-02-18T13:57:42.367Z,7.50
2019-02-18T14:00:20.274Z,10.58
2019-02-18T14:02:50.317Z,6.10
2019-02-18T14:05:21.049Z,6.92
2019-02-18T14:07:50.118Z,6.67
2019-02-18T14:10:20.321Z,7.45
2019-02-18T14:12:49.380Z,5.40
2019-02-18T14:15:18.956Z,6.65
2019-02-18T14:17:48.053Z,6.40
2019-02-18T14:20:18.262Z,10.82
2019-02-18T14:22:47.344Z,6.70
2019-02-18T14:25:16.761Z,9.10
2019-02-18T14:27:45.815Z,8.38
2019-02-18T14:30:16.512Z,10.03
2019-02-18T14:32:45.613Z,8.73
2019-02-18T14:35:16.592Z,7.80
2019-02-18T14:37:45.735Z,8.58
2019-02-18T14:40:17.282Z,12.65
2019-02-18T14:42:46.455Z,11.53
2019-02-18T14:45:15.804Z,10.53
2019-02-18T14:47:44.822Z,12.03
2019-02-18T14:50:16.582Z,13.53
2019-02-18T14:52:45.946Z,10.03
2019-02-18T14:55:15.141Z,19.15
2019-02-18T14:57:44.237Z,22.90
2019-02-18T15:00:23.192Z,29.65
2019-02-18T15:02:54.144Z,25.48
2019-02-18T15:05:23.657Z,24.20
2019-02-18T15:07:52.665Z,21.60
2019-02-18T15:10:21.693Z,22.55
2019-02-18T15:12:50.727Z,18.67
2019-02-18T15:15:19.909Z,18.87
2019-02-18T15:17:49.070Z,17.70
2019-02-18T15:20:18.537Z,19.98
2019-02-18T15:22:47.629Z,23.55
2019-02-18T15:25:16.761Z,25.75
2019-02-18T15:27:45.780Z,35.50
2019-02-18T15:30:15.905Z,41.35
2019-02-18T15:32:45.068Z,56.00
2019-02-18T15:35:15.314Z,53.58
2019-02-18T15:37:44.540Z,51.75
2019-02-18T15:40:15.285Z,54.10
2019-02-18T15:42:44.441Z,48.00
2019-02-18T15:45:13.681Z,42.10
2019-02-18T15:47:42.776Z,45.78
2019-02-18T15:50:13.018Z,62.20
2019-02-18T15:52:42.197Z,90.07
2019-02-18T15:55:11.740Z,77.60
2019-02-18T15:57:40.927Z,76.62
2019-02-18T16:00:13.350Z,97.42
2019-02-18T16:02:42.549Z,127.75
2019-02-18T16:05:11.581Z,143.22
2019-02-18T16:07:40.706Z,150.05
2019-02-18T16:10:09.982Z,135.55
2019-02-18T16:12:39.079Z,126.30
2019-02-18T16:15:09.816Z,80.72
2019-02-18T16:17:38.896Z,79.35
2019-02-18T16:20:11.531Z,92.80
2019-02-18T16:22:40.714Z,65.83
2019-02-18T16:25:15.768Z,51.48
2019-02-18T16:27:44.859Z,51.48
2019-02-18T16:30:15.244Z,60.30
2019-02-18T16:32:44.753Z,79.95
2019-02-18T16:35:13.933Z,78.37
2019-02-18T16:37:43.473Z,97.67
2019-02-18T16:40:17.606Z,105.35
2019-02-18T16:42:46.694Z,95.60
2019-02-18T16:45:16.010Z,76.82
2019-02-18T16:47:45.235Z,77.08
2019-02-18T16:50:14.324Z,80.57
2019-02-18T16:52:43.482Z,68.50
2019-02-18T16:55:14.079Z,69.85
2019-02-18T16:57:43.098Z,66.10
2019-02-18T17:00:21.302Z,90.50
2019-02-18T17:02:51.079Z,116.82
2019-02-18T17:05:20.448Z,127.95
2019-02-18T17:07:49.625Z,126.72
2019-02-18T17:10:18.843Z,130.67
2019-02-18T17:12:48.023Z,88.92
2019-02-18T17:15:17.097Z,87.95
2019-02-18T17:17:46.375Z,90.25
2019-02-18T17:20:15.602Z,96.28
2019-02-18T17:22:44.805Z,124.75
2019-02-18T17:25:14.462Z,118.22
2019-02-18T17:27:44.006Z,129.23
2019-02-18T17:30:17.173Z,81.25
2019-02-18T17:32:46.424Z,93.65
2019-02-18T17:35:15.761Z,100.35
2019-02-18T17:37:45.004Z,84.70
2019-02-18T17:40:14.809Z,76.22
2019-02-18T17:42:45.899Z,74.97
2019-02-18T17:45:17.577Z,80.70
2019-02-18T17:47:46.813Z,79.87
2019-02-18T17:50:16.695Z,79.00
2019-02-18T17:52:46.551Z,68.87
2019-02-18T17:55:19.555Z,60.65
2019-02-18T17:57:48.718Z,56.50
2019-02-18T18:00:24.874Z,57.75
2019-02-18T18:02:53.978Z,61.42
2019-02-18T18:05:23.209Z,80.67
2019-02-18T18:07:52.450Z,81.60
2019-02-18T18:10:21.884Z,93.45
2019-02-18T18:12:51.685Z,102.80
2019-02-18T18:15:20.844Z,88.05
2019-02-18T18:17:50.012Z,97.75
2019-02-18T18:20:19.271Z,83.27
2019-02-18T18:22:48.449Z,98.10
2019-02-18T18:25:17.848Z,101.78
2019-02-18T18:27:47.112Z,97.05
2019-02-18T18:30:19.774Z,101.02
2019-02-18T18:32:48.885Z,112.12
2019-02-18T18:35:18.057Z,112.77
2019-02-18T18:37:48.589Z,119.80
2019-02-18T18:40:19.315Z,122.00
2019-02-18T18:42:48.494Z,110.60
2019-02-18T18:45:18.284Z,92.70
2019-02-18T18:47:47.523Z,93.50
2019-02-18T18:50:18.662Z,98.75
2019-02-18T18:52:48.162Z,98.85
2019-02-18T18:55:17.328Z,99.40
2019-02-18T19:00:19.757Z,87.00
2019-02-18T19:02:48.396Z,85.50
2019-02-18T19:05:17.664Z,90.57
2019-02-18T19:07:46.917Z,86.50
2019-02-18T19:10:16.073Z,88.75
2019-02-18T19:12:45.268Z,80.17
2019-02-18T19:15:15.717Z,90.07
2019-02-18T19:17:44.958Z,92.90
2019-02-18T19:20:14.508Z,96.28
2019-02-18T19:22:43.616Z,96.90
2019-02-18T19:25:12.960Z,105.03
2019-02-18T19:27:42.291Z,102.02
2019-02-18T19:30:17.485Z,111.32
2019-02-18T19:32:47.126Z,120.65
2019-02-18T19:35:16.361Z,111.83
2019-02-18T19:37:45.006Z,114.43
2019-02-18T19:40:14.873Z,98.22
2019-02-18T19:42:44.069Z,97.53
2019-02-18T19:45:15.851Z,135.73
2019-02-18T19:47:45.228Z,144.70
2019-02-18T19:50:14.451Z,174.07
2019-02-18T19:52:43.936Z,206.20
2019-02-18T19:55:12.810Z,173.07
2019-02-18T19:57:41.968Z,146.18
2019-02-18T20:00:19.251Z,132.07
2019-02-18T20:02:48.010Z,129.27
2019-02-18T20:05:16.595Z,102.97
2019-02-18T20:07:45.259Z,85.67
2019-02-18T20:10:14.436Z,84.28
2019-02-18T20:12:43.604Z,91.80
2019-02-18T20:15:16.630Z,119.73
2019-02-18T20:17:45.286Z,158.73
2019-02-18T20:20:17.439Z,105.87
2019-02-18T20:22:47.678Z,130.13
2019-02-18T20:25:16.265Z,111.80
2019-02-18T20:27:45.287Z,78.53
2019-02-18T20:30:17.664Z,59.47
2019-02-18T20:32:46.291Z,67.73
2019-02-18T20:35:14.923Z,76.30
2019-02-18T20:37:43.565Z,82.90
2019-02-18T20:40:12.293Z,83.07
2019-02-18T20:42:41.321Z,82.47
2019-02-18T20:45:12.661Z,111.60
2019-02-18T20:47:41.325Z,93.77
2019-02-18T20:50:12.027Z,64.03
2019-02-18T20:52:40.656Z,50.20
2019-02-18T20:55:11.887Z,54.83
2019-02-18T20:57:40.657Z,43.73
2019-02-18T21:00:15.758Z,43.17
2019-02-18T21:02:44.403Z,58.80
2019-02-18T21:05:13.039Z,53.73
2019-02-18T21:07:41.707Z,68.97
2019-02-18T21:10:13.424Z,78.70
2019-02-18T21:12:42.075Z,61.63
2019-02-18T21:15:10.720Z,42.23
2019-02-18T21:17:39.288Z,37.13
2019-02-18T21:20:09.999Z,29.57
2019-02-18T21:22:38.431Z,51.00
2019-02-18T21:25:08.644Z,39.47
2019-02-18T21:27:37.293Z,34.30
2019-02-18T21:30:09.037Z,30.17
2019-02-18T21:32:37.604Z,27.93
2019-02-18T21:35:06.631Z,36.07
2019-02-18T21:37:35.274Z,29.87
2019-02-18T21:40:05.267Z,30.80
2019-02-18T21:42:33.903Z,25.40
2019-02-18T21:45:02.541Z,22.87
2019-02-18T21:47:31.190Z,22.37
2019-02-18T21:49:59.852Z,22.57
2019-02-18T21:52:28.494Z,23.23
2019-02-18T21:54:57.445Z,30.70
2019-02-18T21:57:25.995Z,51.83
2019-02-18T21:59:54.558Z,49.93
2019-02-18T22:02:23.461Z,37.47
2019-02-18T22:04:52.046Z,31.20
2019-02-18T22:07:20.695Z,61.87
2019-02-18T22:09:49.649Z,24.13
2019-02-18T22:12:18.214Z,23.87
2019-02-18T22:14:46.856Z,19.00
2019-02-18T22:17:15.408Z,21.73
2019-02-18T22:19:44.039Z,21.97
2019-02-18T22:22:12.588Z,22.67
2019-02-18T22:24:41.076Z,22.97
2019-02-18T22:27:09.991Z,25.77
2019-02-18T22:29:38.466Z,25.07
2019-02-18T22:32:06.975Z,55.80
2019-02-18T22:34:35.464Z,114.80
2019-02-18T22:37:04.117Z,95.57
2019-02-18T22:39:32.683Z,27.77
2019-02-18T22:42:01.246Z,23.50
2019-02-18T22:44:30.159Z,20.90
2019-02-18T22:46:58.815Z,20.10
2019-02-18T22:49:27.407Z,27.97
2019-02-18T22:51:55.968Z,28.83
2019-02-18T22:54:24.517Z,25.03
2019-02-18T22:56:53.079Z,24.57
2019-02-18T22:59:21.543Z,21.97
2019-02-18T23:01:50.596Z,21.97
2019-02-18T23:04:19.228Z,23.80
2019-02-18T23:06:47.856Z,23.13
2019-02-18T23:09:16.485Z,24.60
2019-02-18T23:11:45.031Z,25.80
2019-02-18T23:14:13.589Z,29.10
2019-02-18T23:16:42.103Z,25.33
2019-02-18T23:19:10.573Z,29.30
2019-02-18T23:21:40.528Z,28.27
2019-02-18T23:24:09.180Z,27.97
2019-02-18T23:26:37.810Z,27.53
2019-02-18T23:29:06.444Z,27.03
2019-02-18T23:31:34.867Z,25.50
2019-02-18T23:34:03.739Z,24.10
2019-02-18T23:36:32.313Z,25.47
2019-02-18T23:39:00.881Z,23.63
2019-02-18T23:41:29.440Z,23.23
2019-02-18T23:43:58.014Z,23.80
2019-02-18T23:46:26.583Z,26.63
2019-02-18T23:48:55.147Z,29.33
2019-02-18T23:51:23.905Z,31.80
2019-02-18T23:53:52.561Z,36.63
2019-02-18T23:56:21.123Z,26.30
2019-02-18T23:58:49.752Z,32.90
